createdAt,value
2022-11-12T00:02:14.347Z,14.50
2022-11-12T00:05:03.755Z,14.60
2022-11-12T00:07:53.597Z,14.20
2022-11-12T00:10:42.936Z,12.60
2022-11-12T00:13:32.283Z,13.50
2022-11-12T00:16:21.570Z,15.00
2022-11-12T00:19:11.098Z,13.90
2022-11-12T00:22:00.573Z,13.80
2022-11-12T00:24:49.751Z,13.80
2022-11-12T00:27:39.082Z,14.60
2022-11-12T00:30:28.749Z,13.60
2022-11-12T00:33:18.125Z,13.70
2022-11-12T00:36:08.297Z,14.40
2022-11-12T00:38:57.912Z,13.10
2022-11-12T00:41:47.594Z,12.80
2022-11-12T00:44:37.100Z,12.70
2022-11-12T00:47:26.478Z,13.80
2022-11-12T00:50:16.850Z,13.40
2022-11-12T00:53:06.057Z,13.40
2022-11-12T00:55:55.386Z,13.30
2022-11-12T00:58:45.169Z,12.70
2022-11-12T01:01:34.612Z,12.40
2022-11-12T01:04:24.271Z,13.10
2022-11-12T01:07:16.045Z,13.60
2022-11-12T01:10:06.528Z,13.30
2022-11-12T01:12:57.168Z,13.70
2022-11-12T01:15:46.427Z,12.80
2022-11-12T01:18:36.411Z,12.10
2022-11-12T01:21:29.827Z,13.60
2022-11-12T01:24:19.135Z,13.20
2022-11-12T01:27:08.573Z,12.70
2022-11-12T01:29:59.567Z,12.80
2022-11-12T01:32:49.000Z,14.40
2022-11-12T01:35:38.884Z,12.80
2022-11-12T01:38:28.461Z,14.00
2022-11-12T01:41:22.030Z,12.00
2022-11-12T01:44:14.963Z,12.80
2022-11-12T01:47:08.524Z,13.00
2022-11-12T01:50:01.445Z,12.80
2022-11-12T01:52:55.808Z,12.10
2022-11-12T01:55:45.430Z,13.10
2022-11-12T01:58:37.242Z,13.70
2022-11-12T02:01:27.362Z,12.70
2022-11-12T02:04:17.649Z,12.60
2022-11-12T02:07:08.844Z,13.00
2022-11-12T02:09:59.205Z,13.70
2022-11-12T02:13:07.801Z,12.40
2022-11-12T02:15:57.755Z,11.80
2022-11-12T02:18:46.968Z,12.60
2022-11-12T02:21:37.538Z,13.10
2022-11-12T02:24:36.923Z,12.80
2022-11-12T02:27:28.179Z,13.40
2022-11-12T02:30:18.036Z,12.70
2022-11-12T02:33:07.755Z,12.50
2022-11-12T02:35:57.048Z,12.70
2022-11-12T02:38:46.592Z,13.50
2022-11-12T02:41:36.240Z,12.80
2022-11-12T02:44:25.817Z,12.80
2022-11-12T02:47:15.390Z,13.00
2022-11-12T02:50:05.083Z,13.40
2022-11-12T02:52:54.527Z,13.00
2022-11-12T02:55:45.244Z,13.10
2022-11-12T02:58:34.831Z,12.80
2022-11-12T03:01:24.862Z,13.30
2022-11-12T03:04:14.624Z,12.40
2022-11-12T03:07:05.889Z,13.70
2022-11-12T03:09:55.074Z,13.70
2022-11-12T03:12:44.322Z,13.90
2022-11-12T03:15:33.933Z,13.90
2022-11-12T03:18:27.891Z,13.90
2022-11-12T03:21:17.786Z,13.60
2022-11-12T03:24:08.344Z,14.10
2022-11-12T03:26:58.590Z,13.20
2022-11-12T03:29:47.938Z,15.20
2022-11-12T03:32:37.263Z,13.10
2022-11-12T03:35:27.047Z,14.70
2022-11-12T03:38:16.471Z,14.40
2022-11-12T03:41:08.042Z,14.90
2022-11-12T03:43:57.591Z,12.80
2022-11-12T03:46:46.860Z,13.70
2022-11-12T03:49:38.593Z,14.80
2022-11-12T03:52:28.021Z,14.90
2022-11-12T03:55:19.217Z,13.80
2022-11-12T03:58:09.152Z,13.10
2022-11-12T04:00:58.921Z,13.80
2022-11-12T04:03:48.680Z,14.30
2022-11-12T04:06:56.956Z,13.50
2022-11-12T04:09:46.919Z,14.80
2022-11-12T04:12:54.463Z,14.60
2022-11-12T04:15:44.057Z,13.60
2022-11-12T04:18:51.333Z,13.40
2022-11-12T04:21:57.672Z,15.20
2022-11-12T04:25:06.121Z,13.20
2022-11-12T04:27:55.454Z,13.90
2022-11-12T04:30:44.934Z,14.40
2022-11-12T04:33:34.224Z,13.30
2022-11-12T04:36:23.492Z,12.80
2022-11-12T04:39:12.714Z,13.20
2022-11-12T04:42:19.690Z,15.40
2022-11-12T04:45:11.233Z,13.10
2022-11-12T04:48:00.596Z,14.60
2022-11-12T04:50:51.878Z,14.00
2022-11-12T04:53:41.239Z,13.20
2022-11-12T04:56:30.517Z,13.10
2022-11-12T04:59:19.965Z,15.10
2022-11-12T05:02:09.664Z,15.70
2022-11-12T05:04:59.326Z,16.30
2022-11-12T05:07:51.517Z,16.70
2022-11-12T05:10:41.051Z,18.30
2022-11-12T05:13:30.543Z,16.30
2022-11-12T05:16:22.539Z,18.30
2022-11-12T05:19:15.258Z,16.70
2022-11-12T05:22:17.384Z,18.20
2022-11-12T05:25:18.298Z,17.30
2022-11-12T05:28:08.014Z,19.10
2022-11-12T05:30:57.230Z,16.70
2022-11-12T05:33:46.644Z,16.70
2022-11-12T05:36:37.963Z,18.20
2022-11-12T05:39:27.468Z,19.30
2022-11-12T05:42:17.302Z,17.30
2022-11-12T05:45:08.830Z,16.90
2022-11-12T05:47:58.416Z,18.70
2022-11-12T05:51:11.884Z,17.90
2022-11-12T05:54:00.562Z,19.00
2022-11-12T05:56:52.485Z,17.90
2022-11-12T05:59:41.925Z,18.70
2022-11-12T06:02:31.253Z,18.60
2022-11-12T06:05:20.673Z,18.60
2022-11-12T06:08:12.190Z,19.30
2022-11-12T06:11:01.562Z,19.90
2022-11-12T06:13:50.743Z,19.20
2022-11-12T06:16:40.229Z,19.50
2022-11-12T06:19:30.280Z,18.40
2022-11-12T06:22:19.736Z,20.20
2022-11-12T06:25:10.092Z,20.10
2022-11-12T06:27:59.827Z,20.30
2022-11-12T06:30:49.294Z,21.80
2022-11-12T06:33:39.100Z,19.10
2022-11-12T06:36:28.623Z,20.30
2022-11-12T06:39:20.803Z,20.80
2022-11-12T06:42:10.278Z,20.90
2022-11-12T06:44:59.824Z,21.20
2022-11-12T06:47:52.760Z,20.90
2022-11-12T06:50:42.381Z,23.30
2022-11-12T06:53:34.843Z,26.90
2022-11-12T06:56:25.889Z,24.80
2022-11-12T06:59:15.512Z,23.20
2022-11-12T07:02:05.784Z,24.00
2022-11-12T07:04:55.382Z,23.40
2022-11-12T07:07:44.645Z,22.80
2022-11-12T07:10:34.725Z,24.10
2022-11-12T07:13:24.304Z,23.00
2022-11-12T07:16:18.644Z,22.90
2022-11-12T07:19:08.975Z,24.10
2022-11-12T07:21:58.767Z,22.90
2022-11-12T07:24:52.039Z,23.90
2022-11-12T07:27:41.922Z,23.10
2022-11-12T07:30:35.896Z,22.60
2022-11-12T07:33:25.891Z,22.30
2022-11-12T07:36:17.132Z,22.80
2022-11-12T07:39:09.085Z,23.30
2022-11-12T07:41:59.787Z,25.00
2022-11-12T07:44:50.365Z,24.60
2022-11-12T07:47:43.278Z,26.70
2022-11-12T07:50:33.238Z,23.80
2022-11-12T07:53:26.766Z,24.30
2022-11-12T07:56:19.405Z,25.40
2022-11-12T07:59:09.086Z,26.30
2022-11-12T08:01:58.633Z,27.40
2022-11-12T08:04:48.242Z,27.40
2022-11-12T08:07:37.926Z,28.20
2022-11-12T08:10:27.904Z,26.80
2022-11-12T08:13:17.471Z,26.80
2022-11-12T08:16:08.145Z,26.80
2022-11-12T08:18:57.868Z,26.30
2022-11-12T08:21:47.549Z,28.00
2022-11-12T08:24:37.552Z,26.80
2022-11-12T08:27:27.622Z,28.90
2022-11-12T08:30:18.249Z,27.40
2022-11-12T08:33:09.090Z,26.60
2022-11-12T08:35:58.710Z,26.10
2022-11-12T08:38:48.863Z,27.40
2022-11-12T08:41:38.995Z,27.80
2022-11-12T08:44:28.568Z,26.50
2022-11-12T08:47:18.250Z,27.00
2022-11-12T08:50:09.272Z,28.20
2022-11-12T08:53:04.783Z,24.90
2022-11-12T08:55:57.447Z,27.30
2022-11-12T08:58:46.959Z,28.60
2022-11-12T09:01:36.688Z,26.10
2022-11-12T09:04:26.968Z,27.40
2022-11-12T09:07:43.336Z,26.10
2022-11-12T09:10:26.831Z,28.10
2022-11-12T09:13:17.520Z,28.80
2022-11-12T09:16:08.746Z,28.90
2022-11-12T09:18:58.399Z,29.60
2022-11-12T09:21:48.089Z,27.10
2022-11-12T09:24:38.127Z,27.00
2022-11-12T09:27:31.914Z,28.50
2022-11-12T09:30:22.272Z,29.10
2022-11-12T09:33:11.956Z,27.10
2022-11-12T09:36:04.075Z,28.50
2022-11-12T09:38:54.293Z,28.80
2022-11-12T09:41:45.100Z,29.20
2022-11-12T09:44:37.393Z,28.20
2022-11-12T09:47:35.452Z,26.30
2022-11-12T09:50:32.900Z,28.70
2022-11-12T09:53:30.424Z,28.40
2022-11-12T09:56:22.591Z,27.90
2022-11-12T09:59:17.216Z,27.80
2022-11-12T10:02:24.260Z,25.50
2022-11-12T10:05:24.283Z,26.00
2022-11-12T10:08:40.767Z,26.90
2022-11-12T10:12:16.073Z,25.30
2022-11-12T10:15:37.030Z,26.10
2022-11-12T10:19:16.910Z,25.60
2022-11-12T10:22:20.463Z,24.30
2022-11-12T10:25:19.218Z,24.80
2022-11-12T10:28:22.283Z,24.90
2022-11-12T10:31:14.799Z,24.00
2022-11-12T10:34:17.415Z,25.40
2022-11-12T10:37:13.202Z,25.60
2022-11-12T10:40:22.699Z,24.20
2022-11-12T10:43:24.931Z,23.30
2022-11-12T10:46:22.119Z,23.30
2022-11-12T10:49:25.834Z,23.80
2022-11-12T10:52:25.492Z,23.60
2022-11-12T10:55:20.953Z,24.00
2022-11-12T10:58:21.090Z,23.00
2022-11-12T11:01:17.747Z,21.20
2022-11-12T11:04:21.360Z,22.70
2022-11-12T11:07:24.678Z,21.70
2022-11-12T11:10:25.598Z,21.10
2022-11-12T11:13:24.362Z,20.80
2022-11-12T11:16:17.506Z,20.50
2022-11-12T11:19:11.376Z,21.90
2022-11-12T11:22:28.533Z,21.90
2022-11-12T11:28:23.492Z,21.30
2022-11-12T11:31:27.607Z,20.70
2022-11-12T11:34:28.304Z,20.70
2022-11-12T11:37:28.804Z,21.70
2022-11-12T11:40:26.772Z,20.90
2022-11-12T11:44:13.997Z,20.80
2022-11-12T11:47:43.997Z,20.40
2022-11-12T11:51:14.230Z,17.70
2022-11-12T12:02:25.541Z,19.40
2022-11-12T12:05:34.583Z,18.30
2022-11-12T12:09:06.578Z,18.00
2022-11-12T12:12:37.525Z,16.80
2022-11-12T12:19:51.162Z,13.90
2022-11-12T12:22:58.799Z,14.00
2022-11-12T12:26:09.225Z,14.50
2022-11-12T12:29:15.754Z,13.90
2022-11-12T12:36:07.382Z,14.00
2022-11-12T12:39:06.072Z,14.40
2022-11-12T12:42:02.415Z,15.90
2022-11-12T12:48:13.108Z,13.60
2022-11-12T12:51:26.289Z,14.40
2022-11-12T12:54:53.285Z,14.30
2022-11-12T12:57:43.968Z,14.70
2022-11-12T13:00:41.707Z,15.20
2022-11-12T13:03:56.613Z,13.80
2022-11-12T13:06:56.442Z,16.00
2022-11-12T13:09:45.898Z,13.90
2022-11-12T13:13:48.458Z,14.60
2022-11-12T13:17:01.478Z,13.70
2022-11-12T13:20:35.456Z,15.10
2022-11-12T13:24:07.892Z,17.10
2022-11-12T13:27:00.170Z,15.10
2022-11-12T13:29:50.534Z,14.80
2022-11-12T13:32:55.001Z,14.70
2022-11-12T13:35:44.813Z,14.60
2022-11-12T13:38:40.170Z,13.90
2022-11-12T13:41:48.868Z,14.60
2022-11-12T13:44:39.494Z,14.60
2022-11-12T13:47:34.571Z,14.80
2022-11-12T13:50:26.561Z,14.40
2022-11-12T13:53:26.105Z,15.40
2022-11-12T13:56:32.744Z,15.10
2022-11-12T13:59:25.786Z,14.90
2022-11-12T14:02:23.863Z,14.50
2022-11-12T14:08:55.892Z,15.10
2022-11-12T14:11:56.486Z,15.90
2022-11-12T14:15:05.694Z,16.10
2022-11-12T14:18:08.001Z,17.10
2022-11-12T14:20:57.840Z,18.60
2022-11-12T14:23:49.822Z,19.90
2022-11-12T14:26:41.952Z,20.50
2022-11-12T14:29:36.050Z,19.80
2022-11-12T14:35:27.371Z,20.60
2022-11-12T14:38:24.542Z,22.90
2022-11-12T14:41:23.120Z,22.20
2022-11-12T14:44:21.867Z,22.50
2022-11-12T14:47:12.875Z,21.30
2022-11-12T14:50:07.593Z,21.90
2022-11-12T14:53:03.047Z,21.40
2022-11-12T14:55:55.732Z,22.70
2022-11-12T14:59:00.922Z,21.40
2022-11-12T15:02:31.455Z,19.20
2022-11-12T15:05:25.964Z,19.80
2022-11-12T15:08:35.628Z,20.40
2022-11-12T15:12:11.304Z,21.40
2022-11-12T15:15:11.528Z,22.50
2022-11-12T15:18:04.577Z,25.60
2022-11-12T15:21:29.775Z,24.60
2022-11-12T15:24:31.647Z,24.20
2022-11-12T15:27:41.704Z,20.70
2022-11-12T15:30:37.357Z,22.30
2022-11-12T15:33:36.024Z,23.90
2022-11-12T15:36:27.195Z,26.10
2022-11-12T15:39:17.079Z,23.30
2022-11-12T15:42:15.724Z,22.70
2022-11-12T15:45:12.279Z,23.00
2022-11-12T15:48:01.878Z,21.80
2022-11-12T15:50:51.415Z,23.50
2022-11-12T15:53:40.986Z,24.40
2022-11-12T15:56:31.019Z,23.80
2022-11-12T15:59:21.029Z,22.60
2022-11-12T16:02:14.671Z,26.50
2022-11-12T16:05:04.119Z,27.00
2022-11-12T16:07:53.869Z,21.70
2022-11-12T16:10:45.037Z,20.70
2022-11-12T16:13:40.247Z,22.70
2022-11-12T16:16:30.055Z,22.50
2022-11-12T16:19:21.988Z,21.30
2022-11-12T16:22:16.573Z,20.40
2022-11-12T16:25:06.921Z,20.60
2022-11-12T16:27:59.680Z,20.80
2022-11-12T16:30:51.863Z,20.40
2022-11-12T16:38:20.206Z,20.10
2022-11-12T16:45:33.016Z,19.10
2022-11-12T16:48:29.626Z,18.60
2022-11-12T16:51:23.780Z,19.80
2022-11-12T16:54:13.164Z,18.70
2022-11-12T16:57:18.614Z,19.40
2022-11-12T17:00:12.303Z,19.20
2022-11-12T17:03:01.636Z,20.00
2022-11-12T17:06:06.437Z,19.60
2022-11-12T17:09:12.405Z,19.90
2022-11-12T17:12:03.377Z,19.60
2022-11-12T17:14:52.602Z,19.50
2022-11-12T17:17:53.313Z,18.30
2022-11-12T17:20:52.516Z,19.60
2022-11-12T17:23:57.172Z,18.20
2022-11-12T17:26:59.886Z,18.00
2022-11-12T17:30:05.758Z,18.60
2022-11-12T17:33:01.515Z,18.90
2022-11-12T17:35:51.010Z,19.90
2022-11-12T17:38:45.545Z,20.00
2022-11-12T17:41:34.911Z,20.20
2022-11-12T17:44:24.380Z,18.90
2022-11-12T17:47:13.838Z,18.00
2022-11-12T17:50:03.634Z,19.90
2022-11-12T17:52:53.224Z,19.10
2022-11-12T17:55:43.211Z,17.60
2022-11-12T17:58:33.227Z,17.50
2022-11-12T18:01:24.135Z,18.70
2022-11-12T18:04:13.608Z,17.50
2022-11-12T18:07:03.560Z,17.60
2022-11-12T18:09:53.648Z,16.30
2022-11-12T18:12:43.224Z,17.50
2022-11-12T18:15:34.642Z,18.00
2022-11-12T18:18:23.889Z,17.20
2022-11-12T18:21:13.932Z,17.40
2022-11-12T18:24:03.424Z,18.20
2022-11-12T18:26:53.357Z,20.50
2022-11-12T18:29:43.193Z,21.70
2022-11-12T18:32:32.927Z,21.00
2022-11-12T18:35:27.200Z,20.00
2022-11-12T18:38:19.264Z,19.80
2022-11-12T18:41:10.928Z,21.10
2022-11-12T18:44:02.058Z,20.80
2022-11-12T18:46:51.988Z,20.30
2022-11-12T18:49:42.123Z,20.40
2022-11-12T18:52:31.780Z,19.50
2022-11-12T18:55:21.508Z,21.60
2022-11-12T18:58:11.033Z,20.20
2022-11-12T19:01:06.835Z,21.10
2022-11-12T19:03:57.719Z,20.50
2022-11-12T19:06:47.507Z,19.70
2022-11-12T19:09:37.096Z,20.10
2022-11-12T19:12:26.442Z,19.70
2022-11-12T19:15:16.276Z,20.20
2022-11-12T19:18:05.833Z,19.70
2022-11-12T19:21:00.943Z,21.10
2022-11-12T19:23:54.011Z,21.40
2022-11-12T19:26:44.361Z,20.20
2022-11-12T19:29:34.254Z,20.40
2022-11-12T19:32:24.058Z,20.30
2022-11-12T19:35:13.475Z,20.90
2022-11-12T19:38:10.782Z,22.10
2022-11-12T19:41:05.933Z,23.30
2022-11-12T19:44:08.780Z,23.50
2022-11-12T19:46:58.248Z,23.30
2022-11-12T19:50:23.460Z,24.90
2022-11-12T19:53:15.637Z,25.90
2022-11-12T19:56:13.941Z,27.90
2022-11-12T19:59:28.561Z,28.40
2022-11-12T20:02:26.100Z,27.50
2022-11-12T20:05:22.032Z,28.70
2022-11-12T20:08:11.936Z,30.20
2022-11-12T20:11:02.327Z,29.40
2022-11-12T20:13:54.980Z,30.70
2022-11-12T20:16:44.615Z,30.80
2022-11-12T20:19:39.099Z,32.50
2022-11-12T20:22:32.095Z,31.80
2022-11-12T20:25:22.599Z,32.80
2022-11-12T20:28:15.195Z,31.40
2022-11-12T20:31:08.627Z,31.20
2022-11-12T20:33:59.306Z,32.50
2022-11-12T20:36:48.694Z,31.50
2022-11-12T20:39:38.141Z,33.00
2022-11-12T20:42:28.171Z,33.20
2022-11-12T20:45:17.896Z,33.80
2022-11-12T20:48:07.928Z,32.20
2022-11-12T20:51:27.618Z,34.60
2022-11-12T20:54:17.583Z,34.60
2022-11-12T20:57:09.867Z,35.00
2022-11-12T20:59:59.483Z,31.30
2022-11-12T21:02:49.336Z,31.90
2022-11-12T21:05:38.870Z,32.70
2022-11-12T21:08:30.411Z,33.10
2022-11-12T21:11:23.549Z,35.10
2022-11-12T21:14:15.452Z,33.70
2022-11-12T21:17:05.134Z,34.70
2022-11-12T21:19:54.484Z,33.50
2022-11-12T21:22:44.373Z,36.20
2022-11-12T21:25:37.818Z,33.70
2022-11-12T21:28:27.565Z,35.90
2022-11-12T21:31:21.084Z,35.60
2022-11-12T21:34:12.812Z,35.00
2022-11-12T21:37:03.331Z,35.90
2022-11-12T21:39:55.156Z,35.50
2022-11-12T21:42:47.370Z,33.80
2022-11-12T21:45:37.060Z,37.20
2022-11-12T21:48:28.314Z,36.00
2022-11-12T21:51:20.682Z,36.00
2022-11-12T21:54:15.379Z,36.50
2022-11-12T21:57:05.797Z,33.50
2022-11-12T22:00:26.545Z,35.50
2022-11-12T22:03:11.054Z,34.50
2022-11-12T22:06:02.174Z,38.80
2022-11-12T22:08:54.878Z,38.00
2022-11-12T22:11:44.751Z,41.00
2022-11-12T22:14:35.404Z,36.00
2022-11-12T22:17:25.357Z,36.80
2022-11-12T22:20:16.091Z,36.90
2022-11-12T22:23:05.995Z,36.90
2022-11-12T22:26:00.263Z,35.00
2022-11-12T22:28:54.390Z,34.70
2022-11-12T22:31:44.121Z,34.00
2022-11-12T22:34:36.051Z,36.10
2022-11-12T22:37:25.724Z,33.40
2022-11-12T22:40:16.843Z,37.00
2022-11-12T22:43:07.015Z,31.70
2022-11-12T22:45:56.751Z,40.10
2022-11-12T22:48:46.380Z,35.40
2022-11-12T22:51:37.658Z,37.10
2022-11-12T22:54:27.345Z,38.00
2022-11-12T22:57:17.230Z,36.80
2022-11-12T23:00:13.245Z,36.50
2022-11-12T23:03:03.967Z,37.60
2022-11-12T23:06:00.873Z,34.90
2022-11-12T23:08:51.342Z,33.80
2022-11-12T23:11:41.483Z,33.60
2022-11-12T23:14:30.996Z,33.90
2022-11-12T23:17:20.364Z,33.70
2022-11-12T23:20:11.642Z,32.00
2022-11-12T23:23:02.361Z,31.70
2022-11-12T23:25:55.117Z,32.90
2022-11-12T23:28:44.555Z,31.60
2022-11-12T23:31:34.364Z,32.40
2022-11-12T23:34:24.350Z,32.10
2022-11-12T23:37:13.910Z,29.80
2022-11-12T23:40:03.411Z,29.50
2022-11-12T23:42:54.812Z,29.60
2022-11-12T23:45:44.698Z,30.90
2022-11-12T23:48:34.967Z,30.80
2022-11-12T23:51:25.648Z,28.70
2022-11-12T23:54:16.051Z,29.90
2022-11-12T23:57:06.340Z,29.70
2022-11-12T23:59:56.138Z,27.30
